Impacts METAR Board INFO
IDs:

KDTW - Detroit Metro/Wayne, MI, US

Updated at: 0135 UTC 25 Feb 2018
Potential Impact None Slight Moderate High
Time24/13Z 24/14Z 24/15Z 24/16Z 24/17Z 24/18Z 24/19Z 24/20Z 24/21Z 24/22Z 24/23Z 25/00Z 25/01Z
VIS9 10 10 10 10 10 10 10 10 10 10 10 10
CIG20 23 100 100 27 26 20 20 90 20 20 20 15
CoverOVCOVCOVCOVCOVCOVCOVCOVCBKNOVCOVCOVCOVC
FltCatMVFRMVFRVFRVFRMVFRMVFRMVFRMVFRVFRMVFRMVFRMVFRMVFR
WX--------------------------
WDir20507080807080608070709090
WSpd4 8 8 8 9 10 8 10 12 10 9 9 10
WGst-- -- -- -- -- -- -- -- -- -- -- -- --
Raw hourly METARs
KDTW 241253Z 02004KT 9SM OVC020 03/00 A3023 RMK AO2 SLP240 T00330000 $
KDTW 241353Z 05008KT 10SM FEW015 BKN023 OVC100 04/M01 A3022 RMK AO2 SLP237 T00391006 $
KDTW 241453Z 07008KT 10SM FEW023 BKN100 OVC200 04/M01 A3023 RMK AO2 SLP242 T00391011 55001 $
KDTW 241553Z 08008KT 10SM FEW030 BKN100 OVC200 04/M01 A3023 RMK AO2 SLP241 T00441011 $
KDTW 241653Z 08009KT 10SM FEW015 BKN027 OVC140 04/M01 A3022 RMK AO2 SLP237 T00441011 $
KDTW 241753Z 07010KT 10SM SCT018 OVC026 04/M01 A3019 RMK AO2 SLP229 T00391006 10044 20033 58015 $
KDTW 241853Z 08008KT 10SM BKN020 OVC030 04/M01 A3015 RMK AO2 SLP215 T00391006 $
KDTW 241953Z 06010KT 10SM BKN020 OVC090 04/00 A3012 RMK AO2 SLP203 T00440000 $
KDTW 242053Z 08012KT 10SM SCT023 BKN090 BKN200 05/00 A3010 RMK AO2 SLP197 T00500000 56030 $
KDTW 242153Z 07010KT 10SM OVC020 04/00 A3008 RMK AO2 SLP193 T00440000 $
KDTW 242253Z 07009KT 10SM OVC020 04/00 A3006 RMK AO2 SLP183 T00440000 $
KDTW 242353Z 09009KT 10SM OVC020 04/01 A3005 RMK AO2 SLP180 T00440006 10050 20039 56017 $
KDTW 250053Z 09010KT 10SM OVC015 03/M01 A3001 RMK AO2 SLP166 T00331006 $